sensor_id;sensor_type;location;lat;lon;timestamp;P1;durP1;ratioP1;P2;durP2;ratioP2
32748;SDS011;19119;52.474;13.710;2023-02-11T00:00:30;37.88;;;13.10;;
32748;SDS011;19119;52.474;13.710;2023-02-11T00:02:56;36.15;;;13.48;;
32748;SDS011;19119;52.474;13.710;2023-02-11T00:05:22;31.75;;;13.02;;
32748;SDS011;19119;52.474;13.710;2023-02-11T00:07:47;34.88;;;14.32;;
32748;SDS011;19119;52.474;13.710;2023-02-11T00:10:13;32.80;;;13.32;;
32748;SDS011;19119;52.474;13.710;2023-02-11T00:12:38;29.05;;;11.63;;
32748;SDS011;19119;52.474;13.710;2023-02-11T00:15:04;34.95;;;14.02;;
32748;SDS011;19119;52.474;13.710;2023-02-11T00:17:31;36.95;;;13.45;;
32748;SDS011;19119;52.474;13.710;2023-02-11T00:19:57;39.20;;;14.88;;
32748;SDS011;19119;52.474;13.710;2023-02-11T00:22:22;38.22;;;12.60;;
32748;SDS011;19119;52.474;13.710;2023-02-11T00:24:48;39.55;;;14.15;;
32748;SDS011;19119;52.474;13.710;2023-02-11T00:27:13;33.28;;;12.20;;
32748;SDS011;19119;52.474;13.710;2023-02-11T00:29:39;34.63;;;13.18;;
32748;SDS011;19119;52.474;13.710;2023-02-11T00:32:04;31.45;;;12.25;;
32748;SDS011;19119;52.474;13.710;2023-02-11T00:34:33;37.13;;;12.90;;
32748;SDS011;19119;52.474;13.710;2023-02-11T00:36:59;27.90;;;11.13;;
32748;SDS011;19119;52.474;13.710;2023-02-11T00:39:24;34.20;;;12.90;;
32748;SDS011;19119;52.474;13.710;2023-02-11T00:41:50;37.00;;;12.70;;
32748;SDS011;19119;52.474;13.710;2023-02-11T00:44:16;35.10;;;13.15;;
32748;SDS011;19119;52.474;13.710;2023-02-11T00:46:41;25.95;;;12.15;;
32748;SDS011;19119;52.474;13.710;2023-02-11T00:49:07;28.70;;;11.45;;
32748;SDS011;19119;52.474;13.710;2023-02-11T00:51:32;31.52;;;12.20;;
32748;SDS011;19119;52.474;13.710;2023-02-11T00:53:58;34.17;;;12.13;;
32748;SDS011;19119;52.474;13.710;2023-02-11T00:56:24;28.17;;;12.52;;
32748;SDS011;19119;52.474;13.710;2023-02-11T00:58:49;31.83;;;12.60;;
32748;SDS011;19119;52.474;13.710;2023-02-11T01:01:15;33.65;;;12.00;;
32748;SDS011;19119;52.474;13.710;2023-02-11T01:03:40;34.60;;;14.25;;
32748;SDS011;19119;52.474;13.710;2023-02-11T01:06:06;33.88;;;13.10;;
32748;SDS011;19119;52.474;13.710;2023-02-11T01:08:33;32.00;;;13.82;;
32748;SDS011;19119;52.474;13.710;2023-02-11T01:11:00;31.33;;;13.68;;
32748;SDS011;19119;52.474;13.710;2023-02-11T01:13:31;31.90;;;12.55;;
32748;SDS011;19119;52.474;13.710;2023-02-11T01:15:58;33.40;;;12.60;;
32748;SDS011;19119;52.474;13.710;2023-02-11T01:18:24;28.90;;;11.98;;
32748;SDS011;19119;52.474;13.710;2023-02-11T01:20:50;31.10;;;12.50;;
32748;SDS011;19119;52.474;13.710;2023-02-11T01:23:17;37.70;;;13.68;;
32748;SDS011;19119;52.474;13.710;2023-02-11T01:25:43;31.38;;;13.07;;
32748;SDS011;19119;52.474;13.710;2023-02-11T01:28:15;30.20;;;12.57;;
32748;SDS011;19119;52.474;13.710;2023-02-11T01:30:42;35.40;;;14.68;;
32748;SDS011;19119;52.474;13.710;2023-02-11T01:33:08;31.27;;;12.45;;
32748;SDS011;19119;52.474;13.710;2023-02-11T01:35:33;36.88;;;13.82;;
32748;SDS011;19119;52.474;13.710;2023-02-11T01:37:59;28.15;;;11.50;;
32748;SDS011;19119;52.474;13.710;2023-02-11T01:40:24;31.10;;;13.18;;
32748;SDS011;19119;52.474;13.710;2023-02-11T01:42:50;38.33;;;13.23;;
32748;SDS011;19119;52.474;13.710;2023-02-11T01:50:58;29.17;;;12.25;;
32748;SDS011;19119;52.474;13.710;2023-02-11T01:53:28;35.67;;;12.38;;
32748;SDS011;19119;52.474;13.710;2023-02-11T01:56:14;31.42;;;11.95;;
32748;SDS011;19119;52.474;13.710;2023-02-11T01:59:02;29.73;;;11.73;;
32748;SDS011;19119;52.474;13.710;2023-02-11T02:01:34;30.75;;;12.00;;
32748;SDS011;19119;52.474;13.710;2023-02-11T02:04:02;32.17;;;12.18;;
32748;SDS011;19119;52.474;13.710;2023-02-11T02:06:32;36.85;;;13.65;;
32748;SDS011;19119;52.474;13.710;2023-02-11T02:09:05;26.23;;;11.77;;
32748;SDS011;19119;52.474;13.710;2023-02-11T02:11:35;31.75;;;14.30;;
32748;SDS011;19119;52.474;13.710;2023-02-11T02:14:01;31.63;;;12.43;;
32748;SDS011;19119;52.474;13.710;2023-02-11T02:16:31;34.58;;;12.55;;
32748;SDS011;19119;52.474;13.710;2023-02-11T02:24:55;29.92;;;12.30;;
32748;SDS011;19119;52.474;13.710;2023-02-11T02:27:44;29.50;;;12.23;;
32748;SDS011;19119;52.474;13.710;2023-02-11T02:35:33;34.90;;;14.30;;
32748;SDS011;19119;52.474;13.710;2023-02-11T02:41:18;30.63;;;11.30;;
32748;SDS011;19119;52.474;13.710;2023-02-11T02:43:48;31.33;;;12.13;;
32748;SDS011;19119;52.474;13.710;2023-02-11T02:46:16;29.17;;;12.63;;
32748;SDS011;19119;52.474;13.710;2023-02-11T02:48:43;39.35;;;14.32;;
32748;SDS011;19119;52.474;13.710;2023-02-11T03:03:40;37.65;;;14.38;;
32748;SDS011;19119;52.474;13.710;2023-02-11T03:06:30;33.67;;;12.65;;
32748;SDS011;19119;52.474;13.710;2023-02-11T03:09:02;35.25;;;13.07;;
32748;SDS011;19119;52.474;13.710;2023-02-11T03:11:33;32.42;;;13.77;;
32748;SDS011;19119;52.474;13.710;2023-02-11T03:14:01;32.00;;;12.05;;
32748;SDS011;19119;52.474;13.710;2023-02-11T03:16:28;31.88;;;13.38;;
32748;SDS011;19119;52.474;13.710;2023-02-11T03:19:02;37.20;;;13.43;;
32748;SDS011;19119;52.474;13.710;2023-02-11T03:21:32;38.13;;;13.32;;
32748;SDS011;19119;52.474;13.710;2023-02-11T03:24:02;33.90;;;11.90;;
32748;SDS011;19119;52.474;13.710;2023-02-11T03:27:08;31.90;;;13.15;;
32748;SDS011;19119;52.474;13.710;2023-02-11T03:29:45;27.75;;;11.57;;
32748;SDS011;19119;52.474;13.710;2023-02-11T03:38:04;34.60;;;13.30;;
32748;SDS011;19119;52.474;13.710;2023-02-11T03:40:34;35.30;;;13.20;;
32748;SDS011;19119;52.474;13.710;2023-02-11T03:43:04;35.30;;;14.25;;
32748;SDS011;19119;52.474;13.710;2023-02-11T03:45:34;28.50;;;12.35;;
32748;SDS011;19119;52.474;13.710;2023-02-11T03:48:03;35.40;;;14.00;;
32748;SDS011;19119;52.474;13.710;2023-02-11T03:50:36;30.27;;;13.15;;
32748;SDS011;19119;52.474;13.710;2023-02-11T03:53:03;33.33;;;12.18;;
32748;SDS011;19119;52.474;13.710;2023-02-11T03:55:29;34.92;;;13.50;;
32748;SDS011;19119;52.474;13.710;2023-02-11T03:58:00;36.63;;;13.73;;
32748;SDS011;19119;52.474;13.710;2023-02-11T04:00:30;37.13;;;13.63;;
32748;SDS011;19119;52.474;13.710;2023-02-11T04:03:00;34.78;;;13.88;;
32748;SDS011;19119;52.474;13.710;2023-02-11T04:05:26;33.08;;;12.35;;
32748;SDS011;19119;52.474;13.710;2023-02-11T04:07:52;32.83;;;12.32;;
32748;SDS011;19119;52.474;13.710;2023-02-11T04:10:17;38.28;;;14.30;;
32748;SDS011;19119;52.474;13.710;2023-02-11T04:12:43;37.15;;;13.20;;
32748;SDS011;19119;52.474;13.710;2023-02-11T04:15:08;41.22;;;13.93;;
32748;SDS011;19119;52.474;13.710;2023-02-11T04:17:34;38.72;;;13.23;;
32748;SDS011;19119;52.474;13.710;2023-02-11T04:20:00;34.45;;;14.07;;
32748;SDS011;19119;52.474;13.710;2023-02-11T04:22:26;32.50;;;13.75;;
32748;SDS011;19119;52.474;13.710;2023-02-11T04:24:51;32.10;;;12.90;;
32748;SDS011;19119;52.474;13.710;2023-02-11T04:27:17;33.90;;;13.20;;
32748;SDS011;19119;52.474;13.710;2023-02-11T04:29:43;34.50;;;14.50;;
32748;SDS011;19119;52.474;13.710;2023-02-11T04:32:09;26.77;;;12.95;;
32748;SDS011;19119;52.474;13.710;2023-02-11T04:34:35;32.83;;;15.02;;
32748;SDS011;19119;52.474;13.710;2023-02-11T04:37:01;33.78;;;13.57;;
32748;SDS011;19119;52.474;13.710;2023-02-11T04:39:26;29.90;;;11.65;;
32748;SDS011;19119;52.474;13.710;2023-02-11T04:41:52;37.97;;;12.68;;
32748;SDS011;19119;52.474;13.710;2023-02-11T04:44:17;42.00;;;13.18;;
32748;SDS011;19119;52.474;13.710;2023-02-11T04:46:43;35.05;;;13.70;;
32748;SDS011;19119;52.474;13.710;2023-02-11T04:49:10;30.88;;;14.10;;
32748;SDS011;19119;52.474;13.710;2023-02-11T04:51:37;38.05;;;14.43;;
32748;SDS011;19119;52.474;13.710;2023-02-11T04:54:03;31.13;;;13.27;;
32748;SDS011;19119;52.474;13.710;2023-02-11T04:56:29;35.55;;;13.15;;
32748;SDS011;19119;52.474;13.710;2023-02-11T04:58:54;39.88;;;16.02;;
32748;SDS011;19119;52.474;13.710;2023-02-11T05:01:20;37.83;;;15.30;;
32748;SDS011;19119;52.474;13.710;2023-02-11T05:03:46;36.25;;;13.93;;
32748;SDS011;19119;52.474;13.710;2023-02-11T05:06:11;29.27;;;14.55;;
32748;SDS011;19119;52.474;13.710;2023-02-11T05:08:37;39.38;;;15.57;;
32748;SDS011;19119;52.474;13.710;2023-02-11T05:11:03;35.05;;;15.13;;
32748;SDS011;19119;52.474;13.710;2023-02-11T05:13:29;33.72;;;14.20;;
32748;SDS011;19119;52.474;13.710;2023-02-11T05:15:55;41.05;;;14.90;;
32748;SDS011;19119;52.474;13.710;2023-02-11T05:18:20;43.97;;;15.88;;
32748;SDS011;19119;52.474;13.710;2023-02-11T05:20:46;35.00;;;13.95;;
32748;SDS011;19119;52.474;13.710;2023-02-11T05:23:12;33.13;;;14.50;;
32748;SDS011;19119;52.474;13.710;2023-02-11T05:25:37;38.83;;;15.32;;
32748;SDS011;19119;52.474;13.710;2023-02-11T05:28:03;35.80;;;14.60;;
32748;SDS011;19119;52.474;13.710;2023-02-11T05:30:29;37.22;;;16.73;;
32748;SDS011;19119;52.474;13.710;2023-02-11T05:32:55;37.63;;;15.88;;
32748;SDS011;19119;52.474;13.710;2023-02-11T05:35:21;34.88;;;15.18;;
32748;SDS011;19119;52.474;13.710;2023-02-11T05:37:46;39.63;;;15.60;;
32748;SDS011;19119;52.474;13.710;2023-02-11T05:40:12;36.75;;;15.07;;
32748;SDS011;19119;52.474;13.710;2023-02-11T05:42:37;46.38;;;17.02;;
32748;SDS011;19119;52.474;13.710;2023-02-11T05:45:03;38.35;;;15.43;;
32748;SDS011;19119;52.474;13.710;2023-02-11T05:47:29;41.72;;;16.00;;
32748;SDS011;19119;52.474;13.710;2023-02-11T05:49:54;39.72;;;16.02;;
32748;SDS011;19119;52.474;13.710;2023-02-11T05:52:20;35.70;;;15.27;;
32748;SDS011;19119;52.474;13.710;2023-02-11T05:54:46;35.47;;;15.60;;
32748;SDS011;19119;52.474;13.710;2023-02-11T05:57:12;35.20;;;16.25;;
32748;SDS011;19119;52.474;13.710;2023-02-11T05:59:38;42.55;;;17.13;;
32748;SDS011;19119;52.474;13.710;2023-02-11T06:02:04;37.63;;;16.02;;
32748;SDS011;19119;52.474;13.710;2023-02-11T06:04:29;38.75;;;16.08;;
32748;SDS011;19119;52.474;13.710;2023-02-11T06:06:55;45.00;;;16.48;;
32748;SDS011;19119;52.474;13.710;2023-02-11T06:09:21;47.25;;;17.75;;
32748;SDS011;19119;52.474;13.710;2023-02-11T06:11:46;50.08;;;18.77;;
32748;SDS011;19119;52.474;13.710;2023-02-11T06:14:11;40.83;;;16.98;;
32748;SDS011;19119;52.474;13.710;2023-02-11T06:16:38;40.97;;;17.33;;
32748;SDS011;19119;52.474;13.710;2023-02-11T06:19:03;38.75;;;17.27;;
32748;SDS011;19119;52.474;13.710;2023-02-11T06:21:29;41.13;;;17.20;;
32748;SDS011;19119;52.474;13.710;2023-02-11T06:23:54;49.72;;;18.63;;
32748;SDS011;19119;52.474;13.710;2023-02-11T06:26:21;47.08;;;18.25;;
32748;SDS011;19119;52.474;13.710;2023-02-11T06:28:47;40.88;;;17.10;;
32748;SDS011;19119;52.474;13.710;2023-02-11T06:31:13;43.20;;;15.50;;
32748;SDS011;19119;52.474;13.710;2023-02-11T06:33:39;46.03;;;17.20;;
32748;SDS011;19119;52.474;13.710;2023-02-11T06:36:10;43.85;;;17.77;;
32748;SDS011;19119;52.474;13.710;2023-02-11T06:38:41;40.83;;;17.38;;
32748;SDS011;19119;52.474;13.710;2023-02-11T06:41:13;42.85;;;18.45;;
32748;SDS011;19119;52.474;13.710;2023-02-11T06:43:40;42.58;;;18.40;;
32748;SDS011;19119;52.474;13.710;2023-02-11T06:46:06;49.97;;;19.33;;
32748;SDS011;19119;52.474;13.710;2023-02-11T06:48:32;43.00;;;17.77;;
32748;SDS011;19119;52.474;13.710;2023-02-11T06:51:06;43.03;;;17.80;;
32748;SDS011;19119;52.474;13.710;2023-02-11T06:53:34;45.55;;;19.02;;
32748;SDS011;19119;52.474;13.710;2023-02-11T06:56:01;52.10;;;20.15;;
32748;SDS011;19119;52.474;13.710;2023-02-11T06:58:27;50.67;;;18.88;;
32748;SDS011;19119;52.474;13.710;2023-02-11T07:00:53;42.45;;;18.95;;
32748;SDS011;19119;52.474;13.710;2023-02-11T07:03:18;45.08;;;18.23;;
32748;SDS011;19119;52.474;13.710;2023-02-11T07:05:44;43.83;;;17.33;;
32748;SDS011;19119;52.474;13.710;2023-02-11T07:08:09;51.25;;;19.52;;
32748;SDS011;19119;52.474;13.710;2023-02-11T07:10:35;44.70;;;19.23;;
32748;SDS011;19119;52.474;13.710;2023-02-11T07:13:01;46.58;;;17.08;;
32748;SDS011;19119;52.474;13.710;2023-02-11T07:15:26;45.70;;;18.77;;
32748;SDS011;19119;52.474;13.710;2023-02-11T07:17:51;47.80;;;19.27;;
32748;SDS011;19119;52.474;13.710;2023-02-11T07:20:17;48.10;;;19.48;;
32748;SDS011;19119;52.474;13.710;2023-02-11T07:22:43;49.25;;;18.38;;
32748;SDS011;19119;52.474;13.710;2023-02-11T07:25:08;48.92;;;19.52;;
32748;SDS011;19119;52.474;13.710;2023-02-11T07:27:34;47.03;;;18.20;;
32748;SDS011;19119;52.474;13.710;2023-02-11T07:29:59;45.20;;;18.38;;
32748;SDS011;19119;52.474;13.710;2023-02-11T07:32:25;49.88;;;20.52;;
32748;SDS011;19119;52.474;13.710;2023-02-11T07:34:50;57.35;;;21.40;;
32748;SDS011;19119;52.474;13.710;2023-02-11T07:37:16;51.85;;;20.63;;
32748;SDS011;19119;52.474;13.710;2023-02-11T07:39:42;47.65;;;17.52;;
32748;SDS011;19119;52.474;13.710;2023-02-11T07:42:07;46.58;;;18.88;;
32748;SDS011;19119;52.474;13.710;2023-02-11T07:44:32;46.92;;;18.02;;
32748;SDS011;19119;52.474;13.710;2023-02-11T07:46:59;51.05;;;20.48;;
32748;SDS011;19119;52.474;13.710;2023-02-11T07:49:24;51.45;;;21.42;;
32748;SDS011;19119;52.474;13.710;2023-02-11T07:51:50;47.63;;;17.98;;
32748;SDS011;19119;52.474;13.710;2023-02-11T07:54:15;50.63;;;20.30;;
32748;SDS011;19119;52.474;13.710;2023-02-11T07:56:41;48.47;;;19.50;;
32748;SDS011;19119;52.474;13.710;2023-02-11T07:59:07;48.78;;;19.70;;
32748;SDS011;19119;52.474;13.710;2023-02-11T08:01:33;53.15;;;19.85;;
32748;SDS011;19119;52.474;13.710;2023-02-11T08:03:59;46.13;;;19.02;;
32748;SDS011;19119;52.474;13.710;2023-02-11T08:06:26;46.83;;;19.75;;
32748;SDS011;19119;52.474;13.710;2023-02-11T08:08:54;56.05;;;19.50;;
32748;SDS011;19119;52.474;13.710;2023-02-11T08:11:20;61.10;;;20.45;;
32748;SDS011;19119;52.474;13.710;2023-02-11T08:13:46;51.15;;;21.40;;
32748;SDS011;19119;52.474;13.710;2023-02-11T08:16:34;49.28;;;19.05;;
32748;SDS011;19119;52.474;13.710;2023-02-11T08:18:59;42.83;;;19.23;;
32748;SDS011;19119;52.474;13.710;2023-02-11T08:21:27;51.15;;;19.58;;
32748;SDS011;19119;52.474;13.710;2023-02-11T08:23:56;55.50;;;19.90;;
32748;SDS011;19119;52.474;13.710;2023-02-11T08:36:11;50.83;;;21.20;;
32748;SDS011;19119;52.474;13.710;2023-02-11T08:38:39;51.47;;;21.30;;
32748;SDS011;19119;52.474;13.710;2023-02-11T08:41:05;51.13;;;20.33;;
32748;SDS011;19119;52.474;13.710;2023-02-11T08:43:30;53.90;;;22.95;;
32748;SDS011;19119;52.474;13.710;2023-02-11T08:45:57;85.03;;;40.28;;
32748;SDS011;19119;52.474;13.710;2023-02-11T08:48:23;53.58;;;22.70;;
32748;SDS011;19119;52.474;13.710;2023-02-11T08:50:48;41.25;;;20.52;;
32748;SDS011;19119;52.474;13.710;2023-02-11T08:53:14;48.50;;;18.95;;
32748;SDS011;19119;52.474;13.710;2023-02-11T08:55:39;47.25;;;19.40;;
32748;SDS011;19119;52.474;13.710;2023-02-11T08:58:11;49.20;;;19.38;;
32748;SDS011;19119;52.474;13.710;2023-02-11T09:00:37;50.63;;;19.17;;
32748;SDS011;19119;52.474;13.710;2023-02-11T09:03:02;51.95;;;18.70;;
32748;SDS011;19119;52.474;13.710;2023-02-11T09:05:28;46.28;;;20.35;;
32748;SDS011;19119;52.474;13.710;2023-02-11T09:07:53;48.28;;;19.65;;
32748;SDS011;19119;52.474;13.710;2023-02-11T09:10:19;43.33;;;17.20;;
32748;SDS011;19119;52.474;13.710;2023-02-11T09:12:44;42.47;;;18.63;;
32748;SDS011;19119;52.474;13.710;2023-02-11T09:15:10;53.63;;;18.40;;
32748;SDS011;19119;52.474;13.710;2023-02-11T09:17:35;45.08;;;19.67;;
32748;SDS011;19119;52.474;13.710;2023-02-11T09:20:01;50.20;;;19.70;;
32748;SDS011;19119;52.474;13.710;2023-02-11T09:22:27;46.60;;;18.17;;
32748;SDS011;19119;52.474;13.710;2023-02-11T09:24:53;44.00;;;18.27;;
32748;SDS011;19119;52.474;13.710;2023-02-11T09:27:18;48.15;;;21.17;;
32748;SDS011;19119;52.474;13.710;2023-02-11T09:29:44;46.20;;;19.70;;
32748;SDS011;19119;52.474;13.710;2023-02-11T09:32:09;40.60;;;17.63;;
32748;SDS011;19119;52.474;13.710;2023-02-11T09:34:35;43.22;;;17.33;;
32748;SDS011;19119;52.474;13.710;2023-02-11T09:37:00;47.13;;;17.13;;
32748;SDS011;19119;52.474;13.710;2023-02-11T09:39:26;45.47;;;18.13;;
32748;SDS011;19119;52.474;13.710;2023-02-11T09:44:43;37.90;;;16.13;;
32748;SDS011;19119;52.474;13.710;2023-02-11T09:49:52;45.40;;;15.93;;
32748;SDS011;19119;52.474;13.710;2023-02-11T09:52:43;42.60;;;19.10;;
32748;SDS011;19119;52.474;13.710;2023-02-11T09:55:18;42.42;;;17.05;;
32748;SDS011;19119;52.474;13.710;2023-02-11T09:57:47;41.55;;;17.30;;
32748;SDS011;19119;52.474;13.710;2023-02-11T10:00:20;55.25;;;23.23;;
32748;SDS011;19119;52.474;13.710;2023-02-11T10:05:29;44.65;;;18.67;;
32748;SDS011;19119;52.474;13.710;2023-02-11T10:11:12;37.70;;;16.02;;
32748;SDS011;19119;52.474;13.710;2023-02-11T10:13:45;37.85;;;15.45;;
32748;SDS011;19119;52.474;13.710;2023-02-11T10:16:26;37.47;;;16.23;;
32748;SDS011;19119;52.474;13.710;2023-02-11T10:21:50;44.25;;;17.13;;
32748;SDS011;19119;52.474;13.710;2023-02-11T10:24:33;37.97;;;15.82;;
32748;SDS011;19119;52.474;13.710;2023-02-11T10:27:00;36.63;;;15.27;;
32748;SDS011;19119;52.474;13.710;2023-02-11T10:29:32;39.33;;;16.40;;
32748;SDS011;19119;52.474;13.710;2023-02-11T10:32:03;40.13;;;16.10;;
32748;SDS011;19119;52.474;13.710;2023-02-11T10:34:38;37.63;;;16.38;;
32748;SDS011;19119;52.474;13.710;2023-02-11T10:37:05;37.33;;;16.30;;
32748;SDS011;19119;52.474;13.710;2023-02-11T10:39:32;37.38;;;15.85;;
32748;SDS011;19119;52.474;13.710;2023-02-11T10:41:59;35.17;;;14.13;;
32748;SDS011;19119;52.474;13.710;2023-02-11T10:44:32;34.97;;;15.38;;
32748;SDS011;19119;52.474;13.710;2023-02-11T10:47:22;38.05;;;14.77;;
32748;SDS011;19119;52.474;13.710;2023-02-11T10:49:52;39.83;;;16.17;;
32748;SDS011;19119;52.474;13.710;2023-02-11T10:52:19;34.95;;;15.55;;
32748;SDS011;19119;52.474;13.710;2023-02-11T10:57:34;36.20;;;15.65;;
32748;SDS011;19119;52.474;13.710;2023-02-11T11:00:51;34.28;;;16.33;;
32748;SDS011;19119;52.474;13.710;2023-02-11T11:03:02;39.83;;;16.25;;
32748;SDS011;19119;52.474;13.710;2023-02-11T11:05:45;39.70;;;16.35;;
32748;SDS011;19119;52.474;13.710;2023-02-11T11:08:13;38.92;;;16.13;;
32748;SDS011;19119;52.474;13.710;2023-02-11T11:10:40;39.90;;;16.42;;
32748;SDS011;19119;52.474;13.710;2023-02-11T11:13:33;35.30;;;15.88;;
32748;SDS011;19119;52.474;13.710;2023-02-11T11:18:47;32.58;;;14.40;;
32748;SDS011;19119;52.474;13.710;2023-02-11T11:21:19;36.72;;;15.93;;
32748;SDS011;19119;52.474;13.710;2023-02-11T11:23:58;34.20;;;14.25;;
32748;SDS011;19119;52.474;13.710;2023-02-11T11:26:25;34.92;;;14.75;;
32748;SDS011;19119;52.474;13.710;2023-02-11T11:29:12;34.50;;;14.50;;
32748;SDS011;19119;52.474;13.710;2023-02-11T11:31:51;31.85;;;14.30;;
32748;SDS011;19119;52.474;13.710;2023-02-11T11:34:22;33.03;;;14.07;;
32748;SDS011;19119;52.474;13.710;2023-02-11T11:36:54;30.73;;;13.45;;
32748;SDS011;19119;52.474;13.710;2023-02-11T11:39:22;31.08;;;15.10;;
32748;SDS011;19119;52.474;13.710;2023-02-11T11:41:56;29.95;;;13.35;;
32748;SDS011;19119;52.474;13.710;2023-02-11T11:44:25;29.52;;;13.65;;
32748;SDS011;19119;52.474;13.710;2023-02-11T11:52:41;29.75;;;13.40;;
32748;SDS011;19119;52.474;13.710;2023-02-11T11:55:19;30.25;;;14.48;;
32748;SDS011;19119;52.474;13.710;2023-02-11T11:57:50;34.92;;;15.43;;
32748;SDS011;19119;52.474;13.710;2023-02-11T12:00:18;33.63;;;13.85;;
32748;SDS011;19119;52.474;13.710;2023-02-11T12:05:35;30.15;;;13.23;;
32748;SDS011;19119;52.474;13.710;2023-02-11T12:13:46;32.72;;;11.88;;
32748;SDS011;19119;52.474;13.710;2023-02-11T12:16:25;27.00;;;12.48;;
32748;SDS011;19119;52.474;13.710;2023-02-11T12:29:46;23.92;;;10.65;;
32748;SDS011;19119;52.474;13.710;2023-02-11T12:32:33;22.88;;;11.45;;
32748;SDS011;19119;52.474;13.710;2023-02-11T12:35:30;24.60;;;10.75;;
32748;SDS011;19119;52.474;13.710;2023-02-11T12:40:54;27.58;;;12.48;;
32748;SDS011;19119;52.474;13.710;2023-02-11T12:43:37;26.75;;;11.63;;
32748;SDS011;19119;52.474;13.710;2023-02-11T12:54:22;26.98;;;10.40;;
32748;SDS011;19119;52.474;13.710;2023-02-11T12:57:10;28.90;;;11.65;;
32748;SDS011;19119;52.474;13.710;2023-02-11T13:02:23;23.73;;;11.23;;
32748;SDS011;19119;52.474;13.710;2023-02-11T13:04:53;24.80;;;10.18;;
32748;SDS011;19119;52.474;13.710;2023-02-11T13:07:27;22.48;;;10.52;;
32748;SDS011;19119;52.474;13.710;2023-02-11T13:12:45;30.02;;;13.77;;
32748;SDS011;19119;52.474;13.710;2023-02-11T13:15:32;25.67;;;13.45;;
32748;SDS011;19119;52.474;13.710;2023-02-11T13:18:09;28.80;;;12.32;;
32748;SDS011;19119;52.474;13.710;2023-02-11T13:21:00;35.80;;;16.85;;
32748;SDS011;19119;52.474;13.710;2023-02-11T13:23:53;42.33;;;19.63;;
32748;SDS011;19119;52.474;13.710;2023-02-11T13:26:33;28.15;;;13.27;;
32748;SDS011;19119;52.474;13.710;2023-02-11T13:31:54;26.98;;;10.57;;
32748;SDS011;19119;52.474;13.710;2023-02-11T13:37:18;23.67;;;10.95;;
32748;SDS011;19119;52.474;13.710;2023-02-11T13:40:33;18.85;;;10.23;;
32748;SDS011;19119;52.474;13.710;2023-02-11T13:42:50;21.17;;;10.80;;
32748;SDS011;19119;52.474;13.710;2023-02-11T13:47:58;20.38;;;10.90;;
32748;SDS011;19119;52.474;13.710;2023-02-11T13:50:27;20.63;;;10.50;;
32748;SDS011;19119;52.474;13.710;2023-02-11T13:53:01;20.77;;;9.93;;
32748;SDS011;19119;52.474;13.710;2023-02-11T13:55:28;21.77;;;10.38;;
32748;SDS011;19119;52.474;13.710;2023-02-11T14:06:08;22.50;;;12.52;;
32748;SDS011;19119;52.474;13.710;2023-02-11T14:14:20;15.57;;;8.90;;
32748;SDS011;19119;52.474;13.710;2023-02-11T14:19:36;19.45;;;9.35;;
32748;SDS011;19119;52.474;13.710;2023-02-11T14:22:18;24.55;;;10.07;;
32748;SDS011;19119;52.474;13.710;2023-02-11T14:25:21;22.38;;;9.63;;
32748;SDS011;19119;52.474;13.710;2023-02-11T14:27:51;21.05;;;10.38;;
32748;SDS011;19119;52.474;13.710;2023-02-11T14:39:04;19.25;;;9.57;;
32748;SDS011;19119;52.474;13.710;2023-02-11T14:41:46;22.55;;;11.98;;
32748;SDS011;19119;52.474;13.710;2023-02-11T14:44:18;19.67;;;9.82;;
32748;SDS011;19119;52.474;13.710;2023-02-11T14:46:47;18.95;;;8.88;;
32748;SDS011;19119;52.474;13.710;2023-02-11T14:54:47;24.85;;;10.45;;
32748;SDS011;19119;52.474;13.710;2023-02-11T14:57:15;22.17;;;9.70;;
32748;SDS011;19119;52.474;13.710;2023-02-11T14:59:55;16.48;;;8.38;;
32748;SDS011;19119;52.474;13.710;2023-02-11T15:02:33;17.02;;;8.63;;
32748;SDS011;19119;52.474;13.710;2023-02-11T15:10:27;17.80;;;8.40;;
32748;SDS011;19119;52.474;13.710;2023-02-11T15:12:59;19.15;;;8.20;;
32748;SDS011;19119;52.474;13.710;2023-02-11T15:15:27;15.40;;;7.93;;
32748;SDS011;19119;52.474;13.710;2023-02-11T15:17:55;18.48;;;8.30;;
32748;SDS011;19119;52.474;13.710;2023-02-11T15:20:25;16.33;;;8.45;;
32748;SDS011;19119;52.474;13.710;2023-02-11T15:22:55;15.95;;;8.15;;
32748;SDS011;19119;52.474;13.710;2023-02-11T15:25:23;19.08;;;7.93;;
32748;SDS011;19119;52.474;13.710;2023-02-11T15:27:52;17.45;;;8.20;;
32748;SDS011;19119;52.474;13.710;2023-02-11T15:32:46;18.20;;;8.75;;
32748;SDS011;19119;52.474;13.710;2023-02-11T15:35:12;17.45;;;7.90;;
32748;SDS011;19119;52.474;13.710;2023-02-11T15:37:38;15.45;;;7.63;;
32748;SDS011;19119;52.474;13.710;2023-02-11T15:40:50;16.20;;;7.75;;
32748;SDS011;19119;52.474;13.710;2023-02-11T15:42:57;17.25;;;8.15;;
32748;SDS011;19119;52.474;13.710;2023-02-11T15:45:39;15.20;;;7.72;;
32748;SDS011;19119;52.474;13.710;2023-02-11T15:54:14;18.40;;;9.40;;
32748;SDS011;19119;52.474;13.710;2023-02-11T15:56:42;16.35;;;9.38;;
32748;SDS011;19119;52.474;13.710;2023-02-11T15:59:45;13.35;;;8.23;;
32748;SDS011;19119;52.474;13.710;2023-02-11T16:04:52;11.02;;;6.93;;
32748;SDS011;19119;52.474;13.710;2023-02-11T16:18:00;11.93;;;6.38;;
32748;SDS011;19119;52.474;13.710;2023-02-11T16:20:27;17.60;;;9.45;;
32748;SDS011;19119;52.474;13.710;2023-02-11T16:22:53;11.30;;;5.95;;
32748;SDS011;19119;52.474;13.710;2023-02-11T16:25:19;12.13;;;6.00;;
32748;SDS011;19119;52.474;13.710;2023-02-11T16:27:47;14.52;;;6.78;;
32748;SDS011;19119;52.474;13.710;2023-02-11T16:30:37;10.25;;;6.05;;
32748;SDS011;19119;52.474;13.710;2023-02-11T16:33:02;13.10;;;6.75;;
32748;SDS011;19119;52.474;13.710;2023-02-11T16:35:29;11.48;;;5.38;;
32748;SDS011;19119;52.474;13.710;2023-02-11T16:37:55;11.27;;;5.53;;
32748;SDS011;19119;52.474;13.710;2023-02-11T16:40:20;10.20;;;4.90;;
32748;SDS011;19119;52.474;13.710;2023-02-11T16:42:47;10.13;;;5.95;;
32748;SDS011;19119;52.474;13.710;2023-02-11T16:45:13;14.63;;;6.57;;
32748;SDS011;19119;52.474;13.710;2023-02-11T16:47:39;10.10;;;5.20;;
32748;SDS011;19119;52.474;13.710;2023-02-11T16:50:09;12.77;;;6.13;;
32748;SDS011;19119;52.474;13.710;2023-02-11T16:52:43;13.60;;;6.60;;
32748;SDS011;19119;52.474;13.710;2023-02-11T16:55:10;11.43;;;6.18;;
32748;SDS011;19119;52.474;13.710;2023-02-11T16:57:36;13.68;;;7.38;;
32748;SDS011;19119;52.474;13.710;2023-02-11T17:00:02;9.75;;;4.88;;
32748;SDS011;19119;52.474;13.710;2023-02-11T17:02:32;13.68;;;8.13;;
32748;SDS011;19119;52.474;13.710;2023-02-11T17:05:00;8.70;;;4.88;;
32748;SDS011;19119;52.474;13.710;2023-02-11T17:07:28;22.98;;;13.93;;
32748;SDS011;19119;52.474;13.710;2023-02-11T17:09:54;44.92;;;17.77;;
32748;SDS011;19119;52.474;13.710;2023-02-11T17:12:20;31.13;;;18.10;;
32748;SDS011;19119;52.474;13.710;2023-02-11T17:14:49;24.17;;;12.45;;
32748;SDS011;19119;52.474;13.710;2023-02-11T17:17:15;12.52;;;7.28;;
32748;SDS011;19119;52.474;13.710;2023-02-11T17:19:41;20.92;;;11.45;;